sensor_id;sensor_type;location;lat;lon;timestamp;P1;durP1;ratioP1;P2;durP2;ratioP2
20069;SDS011;10195;50.868;4.382;2023-02-12T00:00:34;12.87;;;10.50;;
20069;SDS011;10195;50.868;4.382;2023-02-12T00:03:01;15.20;;;10.23;;
20069;SDS011;10195;50.868;4.382;2023-02-12T00:05:27;15.73;;;11.43;;
20069;SDS011;10195;50.868;4.382;2023-02-12T00:07:53;18.20;;;10.70;;
20069;SDS011;10195;50.868;4.382;2023-02-12T00:10:22;16.23;;;11.37;;
20069;SDS011;10195;50.868;4.382;2023-02-12T00:12:47;15.47;;;11.00;;
20069;SDS011;10195;50.868;4.382;2023-02-12T00:15:13;14.10;;;11.77;;
20069;SDS011;10195;50.868;4.382;2023-02-12T00:17:39;16.60;;;11.97;;
20069;SDS011;10195;50.868;4.382;2023-02-12T00:20:05;18.27;;;13.13;;
20069;SDS011;10195;50.868;4.382;2023-02-12T00:22:32;14.97;;;11.93;;
20069;SDS011;10195;50.868;4.382;2023-02-12T00:24:57;14.70;;;11.53;;
20069;SDS011;10195;50.868;4.382;2023-02-12T00:27:23;14.37;;;11.93;;
20069;SDS011;10195;50.868;4.382;2023-02-12T00:29:49;15.17;;;11.63;;
20069;SDS011;10195;50.868;4.382;2023-02-12T00:32:15;18.37;;;11.90;;
20069;SDS011;10195;50.868;4.382;2023-02-12T00:34:46;15.77;;;11.43;;
20069;SDS011;10195;50.868;4.382;2023-02-12T00:37:12;17.63;;;12.27;;
20069;SDS011;10195;50.868;4.382;2023-02-12T00:39:38;18.63;;;12.33;;
20069;SDS011;10195;50.868;4.382;2023-02-12T00:42:04;15.70;;;12.63;;
20069;SDS011;10195;50.868;4.382;2023-02-12T00:44:30;16.40;;;13.40;;
20069;SDS011;10195;50.868;4.382;2023-02-12T00:46:55;14.27;;;11.60;;
20069;SDS011;10195;50.868;4.382;2023-02-12T00:49:22;16.27;;;12.13;;
20069;SDS011;10195;50.868;4.382;2023-02-12T00:51:47;18.43;;;13.77;;
20069;SDS011;10195;50.868;4.382;2023-02-12T00:54:13;17.57;;;13.83;;
20069;SDS011;10195;50.868;4.382;2023-02-12T00:56:39;18.37;;;13.53;;
20069;SDS011;10195;50.868;4.382;2023-02-12T00:59:05;23.23;;;14.23;;
20069;SDS011;10195;50.868;4.382;2023-02-12T01:01:30;16.87;;;13.37;;
20069;SDS011;10195;50.868;4.382;2023-02-12T01:03:56;18.23;;;14.10;;
20069;SDS011;10195;50.868;4.382;2023-02-12T01:06:22;21.33;;;15.30;;
20069;SDS011;10195;50.868;4.382;2023-02-12T01:08:50;17.27;;;14.17;;
20069;SDS011;10195;50.868;4.382;2023-02-12T01:11:17;10.03;;;8.87;;
20069;SDS011;10195;50.868;4.382;2023-02-12T01:13:43;12.30;;;9.50;;
20069;SDS011;10195;50.868;4.382;2023-02-12T01:16:14;11.27;;;9.23;;
20069;SDS011;10195;50.868;4.382;2023-02-12T01:18:41;19.93;;;13.70;;
20069;SDS011;10195;50.868;4.382;2023-02-12T01:21:23;16.20;;;13.53;;
20069;SDS011;10195;50.868;4.382;2023-02-12T01:23:53;18.03;;;13.00;;
20069;SDS011;10195;50.868;4.382;2023-02-12T01:26:19;16.47;;;13.43;;
20069;SDS011;10195;50.868;4.382;2023-02-12T01:28:53;18.23;;;13.93;;
20069;SDS011;10195;50.868;4.382;2023-02-12T01:31:27;18.53;;;13.90;;
20069;SDS011;10195;50.868;4.382;2023-02-12T01:33:55;15.30;;;13.13;;
20069;SDS011;10195;50.868;4.382;2023-02-12T01:36:23;18.63;;;14.93;;
20069;SDS011;10195;50.868;4.382;2023-02-12T01:38:49;21.97;;;16.40;;
20069;SDS011;10195;50.868;4.382;2023-02-12T01:41:19;22.40;;;16.43;;
20069;SDS011;10195;50.868;4.382;2023-02-12T01:44:33;21.23;;;16.40;;
20069;SDS011;10195;50.868;4.382;2023-02-12T01:46:35;19.43;;;15.33;;
20069;SDS011;10195;50.868;4.382;2023-02-12T01:49:02;20.50;;;16.27;;
20069;SDS011;10195;50.868;4.382;2023-02-12T01:51:31;22.43;;;18.53;;
20069;SDS011;10195;50.868;4.382;2023-02-12T01:53:59;25.13;;;17.33;;
20069;SDS011;10195;50.868;4.382;2023-02-12T01:56:28;24.93;;;18.73;;
20069;SDS011;10195;50.868;4.382;2023-02-12T01:58:55;21.83;;;18.03;;
20069;SDS011;10195;50.868;4.382;2023-02-12T02:01:23;22.13;;;16.60;;
20069;SDS011;10195;50.868;4.382;2023-02-12T02:03:51;24.57;;;19.47;;
20069;SDS011;10195;50.868;4.382;2023-02-12T02:06:27;22.37;;;18.07;;
20069;SDS011;10195;50.868;4.382;2023-02-12T02:08:58;20.93;;;17.77;;
20069;SDS011;10195;50.868;4.382;2023-02-12T02:11:25;27.50;;;20.73;;
20069;SDS011;10195;50.868;4.382;2023-02-12T02:14:09;22.90;;;19.60;;
20069;SDS011;10195;50.868;4.382;2023-02-12T02:17:03;19.37;;;14.30;;
20069;SDS011;10195;50.868;4.382;2023-02-12T02:19:53;19.13;;;14.30;;
20069;SDS011;10195;50.868;4.382;2023-02-12T02:36:44;23.60;;;17.83;;
20069;SDS011;10195;50.868;4.382;2023-02-12T02:42:13;25.23;;;18.33;;
20069;SDS011;10195;50.868;4.382;2023-02-12T02:44:51;24.93;;;15.33;;
20069;SDS011;10195;50.868;4.382;2023-02-12T02:47:19;20.77;;;16.40;;
20069;SDS011;10195;50.868;4.382;2023-02-12T02:49:50;21.57;;;17.90;;
20069;SDS011;10195;50.868;4.382;2023-02-12T02:52:25;27.97;;;21.33;;
20069;SDS011;10195;50.868;4.382;2023-02-12T02:55:00;24.33;;;20.73;;
20069;SDS011;10195;50.868;4.382;2023-02-12T02:57:30;30.53;;;23.60;;
20069;SDS011;10195;50.868;4.382;2023-02-12T03:00:17;31.30;;;23.57;;
20069;SDS011;10195;50.868;4.382;2023-02-12T03:02:47;29.43;;;22.10;;
20069;SDS011;10195;50.868;4.382;2023-02-12T03:08:14;30.97;;;23.03;;
20069;SDS011;10195;50.868;4.382;2023-02-12T03:10:51;30.13;;;21.97;;
20069;SDS011;10195;50.868;4.382;2023-02-12T03:13:20;29.37;;;22.27;;
20069;SDS011;10195;50.868;4.382;2023-02-12T03:15:58;26.50;;;20.97;;
20069;SDS011;10195;50.868;4.382;2023-02-12T03:21:41;20.80;;;16.80;;
20069;SDS011;10195;50.868;4.382;2023-02-12T03:29:55;20.70;;;16.47;;
20069;SDS011;10195;50.868;4.382;2023-02-12T03:40:18;13.33;;;7.27;;
20069;SDS011;10195;50.868;4.382;2023-02-12T03:42:52;16.67;;;11.33;;
20069;SDS011;10195;50.868;4.382;2023-02-12T03:45:37;22.33;;;14.83;;
20069;SDS011;10195;50.868;4.382;2023-02-12T03:50:53;25.97;;;18.80;;
20069;SDS011;10195;50.868;4.382;2023-02-12T03:53:26;23.77;;;18.77;;
20069;SDS011;10195;50.868;4.382;2023-02-12T03:55:58;28.27;;;20.87;;
20069;SDS011;10195;50.868;4.382;2023-02-12T03:58:35;31.83;;;23.13;;
20069;SDS011;10195;50.868;4.382;2023-02-12T04:01:03;31.47;;;21.03;;
20069;SDS011;10195;50.868;4.382;2023-02-12T04:03:30;27.37;;;20.60;;
20069;SDS011;10195;50.868;4.382;2023-02-12T04:05:56;30.50;;;21.77;;
20069;SDS011;10195;50.868;4.382;2023-02-12T04:08:21;29.10;;;21.20;;
20069;SDS011;10195;50.868;4.382;2023-02-12T04:10:55;27.73;;;20.60;;
20069;SDS011;10195;50.868;4.382;2023-02-12T04:16:50;27.53;;;21.53;;
20069;SDS011;10195;50.868;4.382;2023-02-12T04:19:30;27.30;;;21.57;;
20069;SDS011;10195;50.868;4.382;2023-02-12T04:22:13;31.60;;;22.93;;
20069;SDS011;10195;50.868;4.382;2023-02-12T04:24:49;28.83;;;22.63;;
20069;SDS011;10195;50.868;4.382;2023-02-12T04:27:34;30.97;;;23.10;;
20069;SDS011;10195;50.868;4.382;2023-02-12T04:30:15;31.83;;;23.23;;
20069;SDS011;10195;50.868;4.382;2023-02-12T04:32:50;30.77;;;23.30;;
20069;SDS011;10195;50.868;4.382;2023-02-12T04:35:36;30.17;;;22.97;;
20069;SDS011;10195;50.868;4.382;2023-02-12T04:40:33;34.23;;;22.60;;
20069;SDS011;10195;50.868;4.382;2023-02-12T04:43:00;25.20;;;19.07;;
20069;SDS011;10195;50.868;4.382;2023-02-12T04:45:28;28.00;;;20.80;;
20069;SDS011;10195;50.868;4.382;2023-02-12T04:47:55;31.70;;;21.83;;
20069;SDS011;10195;50.868;4.382;2023-02-12T04:50:21;30.13;;;22.07;;
20069;SDS011;10195;50.868;4.382;2023-02-12T04:52:47;29.83;;;22.43;;
20069;SDS011;10195;50.868;4.382;2023-02-12T04:55:13;30.10;;;22.00;;
20069;SDS011;10195;50.868;4.382;2023-02-12T04:57:39;31.60;;;22.97;;
20069;SDS011;10195;50.868;4.382;2023-02-12T05:00:05;27.50;;;21.67;;
20069;SDS011;10195;50.868;4.382;2023-02-12T05:02:32;30.40;;;22.90;;
20069;SDS011;10195;50.868;4.382;2023-02-12T05:04:58;31.30;;;22.57;;
20069;SDS011;10195;50.868;4.382;2023-02-12T05:07:24;30.20;;;20.93;;
20069;SDS011;10195;50.868;4.382;2023-02-12T05:09:50;30.70;;;22.90;;
20069;SDS011;10195;50.868;4.382;2023-02-12T05:12:15;29.00;;;21.77;;
20069;SDS011;10195;50.868;4.382;2023-02-12T05:14:41;30.40;;;22.23;;
20069;SDS011;10195;50.868;4.382;2023-02-12T05:17:07;31.60;;;22.50;;
20069;SDS011;10195;50.868;4.382;2023-02-12T05:19:32;32.23;;;22.30;;
20069;SDS011;10195;50.868;4.382;2023-02-12T05:21:58;32.40;;;21.70;;
20069;SDS011;10195;50.868;4.382;2023-02-12T05:24:24;35.03;;;23.03;;
20069;SDS011;10195;50.868;4.382;2023-02-12T05:26:50;31.07;;;22.87;;
20069;SDS011;10195;50.868;4.382;2023-02-12T05:29:16;30.13;;;22.90;;
20069;SDS011;10195;50.868;4.382;2023-02-12T05:31:41;32.97;;;23.13;;
20069;SDS011;10195;50.868;4.382;2023-02-12T05:34:08;31.17;;;23.93;;
20069;SDS011;10195;50.868;4.382;2023-02-12T05:36:35;33.67;;;23.20;;
20069;SDS011;10195;50.868;4.382;2023-02-12T05:39:01;36.03;;;23.53;;
20069;SDS011;10195;50.868;4.382;2023-02-12T05:41:27;33.80;;;23.57;;
20069;SDS011;10195;50.868;4.382;2023-02-12T05:43:53;29.77;;;23.03;;
20069;SDS011;10195;50.868;4.382;2023-02-12T05:46:19;33.30;;;24.20;;
20069;SDS011;10195;50.868;4.382;2023-02-12T05:48:46;33.00;;;23.80;;
20069;SDS011;10195;50.868;4.382;2023-02-12T05:51:14;33.40;;;24.23;;
20069;SDS011;10195;50.868;4.382;2023-02-12T05:53:41;30.27;;;23.00;;
20069;SDS011;10195;50.868;4.382;2023-02-12T05:56:14;32.73;;;24.47;;
20069;SDS011;10195;50.868;4.382;2023-02-12T05:58:41;33.67;;;24.53;;
20069;SDS011;10195;50.868;4.382;2023-02-12T06:01:20;34.87;;;25.03;;
20069;SDS011;10195;50.868;4.382;2023-02-12T06:03:48;35.37;;;24.40;;
20069;SDS011;10195;50.868;4.382;2023-02-12T06:06:14;33.40;;;24.47;;
20069;SDS011;10195;50.868;4.382;2023-02-12T06:08:40;34.47;;;24.60;;
20069;SDS011;10195;50.868;4.382;2023-02-12T06:11:07;32.90;;;24.73;;
20069;SDS011;10195;50.868;4.382;2023-02-12T06:13:36;37.60;;;25.20;;
20069;SDS011;10195;50.868;4.382;2023-02-12T06:16:02;34.33;;;25.67;;
20069;SDS011;10195;50.868;4.382;2023-02-12T06:18:28;36.03;;;25.57;;
20069;SDS011;10195;50.868;4.382;2023-02-12T06:20:54;39.63;;;27.70;;
20069;SDS011;10195;50.868;4.382;2023-02-12T06:23:20;35.07;;;26.17;;
20069;SDS011;10195;50.868;4.382;2023-02-12T06:25:46;33.40;;;26.40;;
20069;SDS011;10195;50.868;4.382;2023-02-12T06:28:13;38.47;;;27.47;;
20069;SDS011;10195;50.868;4.382;2023-02-12T06:30:38;35.60;;;27.27;;
20069;SDS011;10195;50.868;4.382;2023-02-12T06:33:04;38.03;;;28.10;;
20069;SDS011;10195;50.868;4.382;2023-02-12T06:35:30;37.03;;;27.97;;
20069;SDS011;10195;50.868;4.382;2023-02-12T06:37:58;35.77;;;26.87;;
20069;SDS011;10195;50.868;4.382;2023-02-12T06:40:25;41.27;;;28.47;;
20069;SDS011;10195;50.868;4.382;2023-02-12T06:42:50;36.67;;;28.27;;
20069;SDS011;10195;50.868;4.382;2023-02-12T06:45:16;39.03;;;26.87;;
20069;SDS011;10195;50.868;4.382;2023-02-12T06:47:42;39.10;;;27.57;;
20069;SDS011;10195;50.868;4.382;2023-02-12T06:50:07;40.23;;;27.20;;
20069;SDS011;10195;50.868;4.382;2023-02-12T06:52:33;38.43;;;27.10;;
20069;SDS011;10195;50.868;4.382;2023-02-12T06:54:59;40.93;;;28.17;;
20069;SDS011;10195;50.868;4.382;2023-02-12T06:57:25;41.53;;;28.70;;
20069;SDS011;10195;50.868;4.382;2023-02-12T06:59:50;38.20;;;27.60;;
20069;SDS011;10195;50.868;4.382;2023-02-12T07:02:16;38.27;;;27.00;;
20069;SDS011;10195;50.868;4.382;2023-02-12T07:04:42;38.53;;;27.40;;
20069;SDS011;10195;50.868;4.382;2023-02-12T07:07:07;39.93;;;27.77;;
20069;SDS011;10195;50.868;4.382;2023-02-12T07:09:33;41.37;;;28.20;;
20069;SDS011;10195;50.868;4.382;2023-02-12T07:11:59;38.13;;;25.57;;
20069;SDS011;10195;50.868;4.382;2023-02-12T07:14:25;39.90;;;28.17;;
20069;SDS011;10195;50.868;4.382;2023-02-12T07:16:52;38.23;;;27.47;;
20069;SDS011;10195;50.868;4.382;2023-02-12T07:19:19;38.20;;;27.50;;
20069;SDS011;10195;50.868;4.382;2023-02-12T07:21:45;37.77;;;26.83;;
20069;SDS011;10195;50.868;4.382;2023-02-12T07:24:10;37.73;;;28.93;;
20069;SDS011;10195;50.868;4.382;2023-02-12T07:26:37;37.00;;;27.27;;
20069;SDS011;10195;50.868;4.382;2023-02-12T07:29:03;41.80;;;28.47;;
20069;SDS011;10195;50.868;4.382;2023-02-12T07:31:29;40.40;;;30.07;;
20069;SDS011;10195;50.868;4.382;2023-02-12T07:33:55;40.43;;;28.73;;
20069;SDS011;10195;50.868;4.382;2023-02-12T07:36:22;41.17;;;28.70;;
20069;SDS011;10195;50.868;4.382;2023-02-12T07:38:49;40.73;;;30.33;;
20069;SDS011;10195;50.868;4.382;2023-02-12T07:43:53;39.40;;;28.77;;
20069;SDS011;10195;50.868;4.382;2023-02-12T07:46:25;39.77;;;28.97;;
20069;SDS011;10195;50.868;4.382;2023-02-12T07:48:56;38.37;;;27.47;;
20069;SDS011;10195;50.868;4.382;2023-02-12T07:51:22;38.40;;;28.67;;
20069;SDS011;10195;50.868;4.382;2023-02-12T07:53:48;36.50;;;27.20;;
20069;SDS011;10195;50.868;4.382;2023-02-12T07:56:15;40.13;;;29.07;;
20069;SDS011;10195;50.868;4.382;2023-02-12T07:58:44;38.77;;;27.33;;
20069;SDS011;10195;50.868;4.382;2023-02-12T08:01:24;44.63;;;28.70;;
20069;SDS011;10195;50.868;4.382;2023-02-12T08:03:58;35.27;;;25.27;;
20069;SDS011;10195;50.868;4.382;2023-02-12T08:06:26;38.77;;;26.00;;
20069;SDS011;10195;50.868;4.382;2023-02-12T08:08:53;41.83;;;28.73;;
20069;SDS011;10195;50.868;4.382;2023-02-12T08:11:20;33.47;;;25.37;;
20069;SDS011;10195;50.868;4.382;2023-02-12T08:13:47;34.20;;;26.13;;
20069;SDS011;10195;50.868;4.382;2023-02-12T08:16:13;41.47;;;28.47;;
20069;SDS011;10195;50.868;4.382;2023-02-12T08:18:41;36.63;;;26.80;;
20069;SDS011;10195;50.868;4.382;2023-02-12T08:21:13;35.60;;;26.13;;
20069;SDS011;10195;50.868;4.382;2023-02-12T08:23:42;36.93;;;26.53;;
20069;SDS011;10195;50.868;4.382;2023-02-12T08:26:12;40.97;;;27.30;;
20069;SDS011;10195;50.868;4.382;2023-02-12T08:28:41;37.43;;;27.43;;
20069;SDS011;10195;50.868;4.382;2023-02-12T08:31:11;35.67;;;25.77;;
20069;SDS011;10195;50.868;4.382;2023-02-12T08:33:39;32.27;;;23.80;;
20069;SDS011;10195;50.868;4.382;2023-02-12T08:38:33;40.03;;;25.27;;
20069;SDS011;10195;50.868;4.382;2023-02-12T08:41:00;34.10;;;25.80;;
20069;SDS011;10195;50.868;4.382;2023-02-12T08:43:28;39.20;;;25.57;;
20069;SDS011;10195;50.868;4.382;2023-02-12T08:45:54;36.23;;;26.03;;
20069;SDS011;10195;50.868;4.382;2023-02-12T08:48:29;36.67;;;24.93;;
20069;SDS011;10195;50.868;4.382;2023-02-12T08:50:55;33.07;;;23.60;;
20069;SDS011;10195;50.868;4.382;2023-02-12T08:53:20;32.63;;;23.03;;
20069;SDS011;10195;50.868;4.382;2023-02-12T08:55:49;32.27;;;22.30;;
20069;SDS011;10195;50.868;4.382;2023-02-12T08:58:15;32.33;;;21.87;;
20069;SDS011;10195;50.868;4.382;2023-02-12T09:00:41;32.10;;;21.53;;
20069;SDS011;10195;50.868;4.382;2023-02-12T09:03:07;29.37;;;20.63;;
20069;SDS011;10195;50.868;4.382;2023-02-12T09:05:32;27.00;;;20.57;;
20069;SDS011;10195;50.868;4.382;2023-02-12T09:08:03;29.10;;;20.77;;
20069;SDS011;10195;50.868;4.382;2023-02-12T09:10:28;31.77;;;20.60;;
20069;SDS011;10195;50.868;4.382;2023-02-12T09:12:54;32.67;;;21.13;;
20069;SDS011;10195;50.868;4.382;2023-02-12T09:15:20;32.20;;;21.50;;
20069;SDS011;10195;50.868;4.382;2023-02-12T09:17:45;28.37;;;19.27;;
20069;SDS011;10195;50.868;4.382;2023-02-12T09:20:11;29.40;;;19.67;;
20069;SDS011;10195;50.868;4.382;2023-02-12T09:22:36;25.93;;;17.33;;
20069;SDS011;10195;50.868;4.382;2023-02-12T09:25:03;26.13;;;18.40;;
20069;SDS011;10195;50.868;4.382;2023-02-12T09:27:30;24.23;;;17.87;;
20069;SDS011;10195;50.868;4.382;2023-02-12T09:29:56;28.77;;;18.73;;
20069;SDS011;10195;50.868;4.382;2023-02-12T09:32:21;29.07;;;18.77;;
20069;SDS011;10195;50.868;4.382;2023-02-12T09:34:47;28.23;;;19.27;;
20069;SDS011;10195;50.868;4.382;2023-02-12T09:37:13;24.37;;;18.27;;
20069;SDS011;10195;50.868;4.382;2023-02-12T09:39:38;26.47;;;18.53;;
20069;SDS011;10195;50.868;4.382;2023-02-12T09:50:56;31.80;;;19.50;;
20069;SDS011;10195;50.868;4.382;2023-02-12T09:53:27;28.07;;;20.23;;
20069;SDS011;10195;50.868;4.382;2023-02-12T09:55:55;27.20;;;18.93;;
20069;SDS011;10195;50.868;4.382;2023-02-12T09:58:32;29.13;;;19.30;;
20069;SDS011;10195;50.868;4.382;2023-02-12T10:01:00;24.40;;;18.20;;
20069;SDS011;10195;50.868;4.382;2023-02-12T10:03:36;33.63;;;24.03;;
20069;SDS011;10195;50.868;4.382;2023-02-12T10:06:03;32.13;;;23.23;;
20069;SDS011;10195;50.868;4.382;2023-02-12T10:11:28;36.23;;;24.47;;
20069;SDS011;10195;50.868;4.382;2023-02-12T10:16:44;34.33;;;23.67;;
20069;SDS011;10195;50.868;4.382;2023-02-12T10:19:41;35.10;;;24.37;;
20069;SDS011;10195;50.868;4.382;2023-02-12T10:28:37;35.53;;;23.87;;
20069;SDS011;10195;50.868;4.382;2023-02-12T10:31:06;34.03;;;23.67;;
20069;SDS011;10195;50.868;4.382;2023-02-12T10:41:38;34.43;;;22.33;;
20069;SDS011;10195;50.868;4.382;2023-02-12T10:44:11;31.93;;;20.97;;
20069;SDS011;10195;50.868;4.382;2023-02-12T10:46:37;31.13;;;21.27;;
20069;SDS011;10195;50.868;4.382;2023-02-12T10:49:03;32.73;;;22.17;;
20069;SDS011;10195;50.868;4.382;2023-02-12T10:54:35;31.47;;;20.80;;
20069;SDS011;10195;50.868;4.382;2023-02-12T10:57:06;32.40;;;20.67;;
20069;SDS011;10195;50.868;4.382;2023-02-12T10:59:45;30.23;;;21.23;;
20069;SDS011;10195;50.868;4.382;2023-02-12T11:02:58;31.67;;;20.93;;
20069;SDS011;10195;50.868;4.382;2023-02-12T11:05:23;29.67;;;21.27;;
20069;SDS011;10195;50.868;4.382;2023-02-12T11:07:52;31.37;;;22.10;;
20069;SDS011;10195;50.868;4.382;2023-02-12T11:10:28;32.33;;;21.50;;
20069;SDS011;10195;50.868;4.382;2023-02-12T11:13:01;33.17;;;21.33;;
20069;SDS011;10195;50.868;4.382;2023-02-12T11:15:37;33.00;;;21.03;;
20069;SDS011;10195;50.868;4.382;2023-02-12T11:18:19;29.73;;;22.33;;
20069;SDS011;10195;50.868;4.382;2023-02-12T11:20:49;33.77;;;20.93;;
20069;SDS011;10195;50.868;4.382;2023-02-12T11:23:29;27.87;;;20.77;;
20069;SDS011;10195;50.868;4.382;2023-02-12T11:25:58;27.60;;;20.67;;
20069;SDS011;10195;50.868;4.382;2023-02-12T11:28:26;32.50;;;19.70;;
20069;SDS011;10195;50.868;4.382;2023-02-12T11:31:00;28.10;;;18.77;;
20069;SDS011;10195;50.868;4.382;2023-02-12T11:33:38;29.23;;;18.83;;
20069;SDS011;10195;50.868;4.382;2023-02-12T11:36:22;28.90;;;19.77;;
20069;SDS011;10195;50.868;4.382;2023-02-12T11:38:53;28.53;;;18.27;;
20069;SDS011;10195;50.868;4.382;2023-02-12T11:41:34;29.50;;;18.73;;
20069;SDS011;10195;50.868;4.382;2023-02-12T11:46:49;29.87;;;19.17;;
20069;SDS011;10195;50.868;4.382;2023-02-12T11:49:21;26.33;;;17.83;;
20069;SDS011;10195;50.868;4.382;2023-02-12T11:51:51;28.37;;;19.27;;
20069;SDS011;10195;50.868;4.382;2023-02-12T11:54:18;26.73;;;18.47;;
20069;SDS011;10195;50.868;4.382;2023-02-12T11:56:48;30.10;;;19.20;;
20069;SDS011;10195;50.868;4.382;2023-02-12T11:59:28;30.97;;;19.50;;
20069;SDS011;10195;50.868;4.382;2023-02-12T12:02:42;32.80;;;20.83;;
20069;SDS011;10195;50.868;4.382;2023-02-12T12:04:53;26.23;;;19.10;;
20069;SDS011;10195;50.868;4.382;2023-02-12T12:07:28;30.27;;;19.20;;
20069;SDS011;10195;50.868;4.382;2023-02-12T12:10:06;24.07;;;18.17;;
20069;SDS011;10195;50.868;4.382;2023-02-12T12:13:15;29.17;;;18.20;;
20069;SDS011;10195;50.868;4.382;2023-02-12T12:15:48;25.10;;;17.13;;
20069;SDS011;10195;50.868;4.382;2023-02-12T12:18:46;25.93;;;16.23;;
20069;SDS011;10195;50.868;4.382;2023-02-12T12:24:40;22.17;;;16.10;;
20069;SDS011;10195;50.868;4.382;2023-02-12T12:27:14;24.97;;;16.97;;
20069;SDS011;10195;50.868;4.382;2023-02-12T12:44:34;24.90;;;16.20;;
20069;SDS011;10195;50.868;4.382;2023-02-12T13:05:57;20.83;;;15.37;;
20069;SDS011;10195;50.868;4.382;2023-02-12T13:13:48;24.07;;;15.97;;
20069;SDS011;10195;50.868;4.382;2023-02-12T13:24:42;21.27;;;14.93;;
20069;SDS011;10195;50.868;4.382;2023-02-12T13:27:15;26.40;;;16.53;;
20069;SDS011;10195;50.868;4.382;2023-02-12T13:29:51;27.60;;;17.00;;
20069;SDS011;10195;50.868;4.382;2023-02-12T13:32:41;24.93;;;16.67;;
20069;SDS011;10195;50.868;4.382;2023-02-12T13:35:20;24.93;;;16.53;;
20069;SDS011;10195;50.868;4.382;2023-02-12T13:37:52;24.07;;;16.33;;
20069;SDS011;10195;50.868;4.382;2023-02-12T13:40:22;28.40;;;16.67;;
20069;SDS011;10195;50.868;4.382;2023-02-12T13:56:27;28.60;;;17.43;;
20069;SDS011;10195;50.868;4.382;2023-02-12T14:02:42;31.07;;;18.30;;
20069;SDS011;10195;50.868;4.382;2023-02-12T14:04:44;27.83;;;18.17;;
20069;SDS011;10195;50.868;4.382;2023-02-12T14:07:15;32.43;;;20.83;;
20069;SDS011;10195;50.868;4.382;2023-02-12T14:12:37;30.77;;;19.10;;
20069;SDS011;10195;50.868;4.382;2023-02-12T14:15:07;34.30;;;19.40;;
20069;SDS011;10195;50.868;4.382;2023-02-12T14:17:51;33.43;;;18.57;;
20069;SDS011;10195;50.868;4.382;2023-02-12T14:32:55;29.27;;;20.77;;
20069;SDS011;10195;50.868;4.382;2023-02-12T14:37:52;29.37;;;19.70;;
20069;SDS011;10195;50.868;4.382;2023-02-12T14:45:58;31.00;;;20.17;;
20069;SDS011;10195;50.868;4.382;2023-02-12T14:51:40;35.10;;;20.37;;
20069;SDS011;10195;50.868;4.382;2023-02-12T14:54:24;33.73;;;19.70;;
20069;SDS011;10195;50.868;4.382;2023-02-12T14:56:54;38.47;;;19.87;;
20069;SDS011;10195;50.868;4.382;2023-02-12T14:59:23;28.87;;;18.87;;
20069;SDS011;10195;50.868;4.382;2023-02-12T15:01:50;29.67;;;19.17;;
20069;SDS011;10195;50.868;4.382;2023-02-12T15:04:28;33.10;;;19.13;;
20069;SDS011;10195;50.868;4.382;2023-02-12T15:07:16;30.13;;;18.10;;
20069;SDS011;10195;50.868;4.382;2023-02-12T15:09:54;31.57;;;18.57;;
20069;SDS011;10195;50.868;4.382;2023-02-12T15:12:38;28.77;;;18.87;;
20069;SDS011;10195;50.868;4.382;2023-02-12T15:15:30;30.07;;;18.33;;
20069;SDS011;10195;50.868;4.382;2023-02-12T15:18:06;31.23;;;19.73;;
20069;SDS011;10195;50.868;4.382;2023-02-12T15:23:35;30.00;;;18.70;;
20069;SDS011;10195;50.868;4.382;2023-02-12T15:26:04;31.67;;;19.73;;
20069;SDS011;10195;50.868;4.382;2023-02-12T15:28:36;29.37;;;19.63;;
20069;SDS011;10195;50.868;4.382;2023-02-12T15:31:04;28.30;;;19.00;;
20069;SDS011;10195;50.868;4.382;2023-02-12T15:33:34;33.87;;;19.20;;
20069;SDS011;10195;50.868;4.382;2023-02-12T15:36:04;29.87;;;19.63;;
20069;SDS011;10195;50.868;4.382;2023-02-12T15:38:33;35.83;;;22.00;;
20069;SDS011;10195;50.868;4.382;2023-02-12T15:41:05;33.13;;;20.20;;
20069;SDS011;10195;50.868;4.382;2023-02-12T15:43:33;30.40;;;19.83;;
20069;SDS011;10195;50.868;4.382;2023-02-12T15:46:04;33.07;;;21.20;;
20069;SDS011;10195;50.868;4.382;2023-02-12T15:48:35;37.67;;;19.87;;
20069;SDS011;10195;50.868;4.382;2023-02-12T15:51:13;34.53;;;22.00;;
20069;SDS011;10195;50.868;4.382;2023-02-12T15:53:54;33.37;;;20.87;;
20069;SDS011;10195;50.868;4.382;2023-02-12T15:56:23;33.40;;;21.50;;
20069;SDS011;10195;50.868;4.382;2023-02-12T15:58:51;29.53;;;18.33;;
20069;SDS011;10195;50.868;4.382;2023-02-12T16:01:27;31.87;;;20.93;;
20069;SDS011;10195;50.868;4.382;2023-02-12T16:04:01;36.63;;;20.60;;
20069;SDS011;10195;50.868;4.382;2023-02-12T16:06:33;32.97;;;21.33;;
20069;SDS011;10195;50.868;4.382;2023-02-12T16:09:05;31.57;;;21.93;;
20069;SDS011;10195;50.868;4.382;2023-02-12T16:11:37;37.43;;;20.90;;
20069;SDS011;10195;50.868;4.382;2023-02-12T16:14:07;34.37;;;21.10;;
20069;SDS011;10195;50.868;4.382;2023-02-12T16:16:46;33.73;;;21.10;;
20069;SDS011;10195;50.868;4.382;2023-02-12T16:21:42;35.97;;;21.97;;
20069;SDS011;10195;50.868;4.382;2023-02-12T16:26:57;36.40;;;22.13;;
20069;SDS011;10195;50.868;4.382;2023-02-12T16:29:28;34.63;;;22.00;;
20069;SDS011;10195;50.868;4.382;2023-02-12T16:32:00;41.13;;;23.37;;
20069;SDS011;10195;50.868;4.382;2023-02-12T16:34:36;33.97;;;21.53;;
20069;SDS011;10195;50.868;4.382;2023-02-12T16:42:37;38.50;;;24.13;;
20069;SDS011;10195;50.868;4.382;2023-02-12T16:50:23;38.83;;;23.37;;
20069;SDS011;10195;50.868;4.382;2023-02-12T16:53:00;37.57;;;23.43;;
20069;SDS011;10195;50.868;4.382;2023-02-12T16:55:31;36.97;;;21.77;;
20069;SDS011;10195;50.868;4.382;2023-02-12T16:57:56;37.67;;;22.70;;
20069;SDS011;10195;50.868;4.382;2023-02-12T17:00:23;36.07;;;24.47;;
20069;SDS011;10195;50.868;4.382;2023-02-12T17:02:50;32.97;;;22.47;;
20069;SDS011;10195;50.868;4.382;2023-02-12T17:05:19;39.80;;;22.83;;
20069;SDS011;10195;50.868;4.382;2023-02-12T17:07:47;36.80;;;23.30;;
20069;SDS011;10195;50.868;4.382;2023-02-12T17:10:13;41.07;;;24.43;;
20069;SDS011;10195;50.868;4.382;2023-02-12T17:12:44;43.67;;;25.53;;
20069;SDS011;10195;50.868;4.382;2023-02-12T17:15:11;37.90;;;24.40;;
20069;SDS011;10195;50.868;4.382;2023-02-12T17:17:50;40.07;;;25.37;;
20069;SDS011;10195;50.868;4.382;2023-02-12T17:20:16;42.20;;;23.90;;
20069;SDS011;10195;50.868;4.382;2023-02-12T17:22:44;46.37;;;27.33;;
20069;SDS011;10195;50.868;4.382;2023-02-12T17:25:17;42.73;;;24.17;;
20069;SDS011;10195;50.868;4.382;2023-02-12T17:27:43;40.50;;;23.97;;
20069;SDS011;10195;50.868;4.382;2023-02-12T17:30:09;43.87;;;25.33;;
20069;SDS011;10195;50.868;4.382;2023-02-12T17:32:39;43.97;;;26.27;;
20069;SDS011;10195;50.868;4.382;2023-02-12T17:35:05;42.90;;;25.80;;
20069;SDS011;10195;50.868;4.382;2023-02-12T17:37:31;51.47;;;26.30;;
20069;SDS011;10195;50.868;4.382;2023-02-12T17:39:57;45.20;;;26.07;;
20069;SDS011;10195;50.868;4.382;2023-02-12T17:42:23;45.63;;;27.10;;
20069;SDS011;10195;50.868;4.382;2023-02-12T17:44:49;42.50;;;26.13;;
20069;SDS011;10195;50.868;4.382;2023-02-12T17:47:14;47.23;;;28.17;;
20069;SDS011;10195;50.868;4.382;2023-02-12T17:49:40;42.53;;;26.73;;
20069;SDS011;10195;50.868;4.382;2023-02-12T17:52:06;41.77;;;26.90;;
20069;SDS011;10195;50.868;4.382;2023-02-12T17:54:32;46.93;;;26.77;;
20069;SDS011;10195;50.868;4.382;2023-02-12T17:56:57;48.67;;;27.33;;